createdAt,value
2023-02-09T00:01:21.534Z,-5.11
2023-02-09T00:03:48.339Z,-5.15
2023-02-09T00:06:17.812Z,-5.20
2023-02-09T00:08:44.851Z,-5.40
2023-02-09T00:11:22.404Z,-5.33
2023-02-09T00:13:48.927Z,-5.38
2023-02-09T00:16:15.540Z,-5.30
2023-02-09T00:18:42.042Z,-5.38
2023-02-09T00:21:10.895Z,-5.50
2023-02-09T00:23:40.716Z,-5.50
2023-02-09T00:26:10.441Z,-5.52
2023-02-09T00:28:37.587Z,-5.50
2023-02-09T00:31:12.503Z,-5.60
2023-02-09T00:33:41.796Z,-5.67
2023-02-09T00:36:11.691Z,-5.79
2023-02-09T00:38:39.142Z,-5.89
2023-02-09T00:41:06.172Z,-5.87
2023-02-09T00:43:33.445Z,-5.66
2023-02-09T00:45:59.944Z,-5.53
2023-02-09T00:48:26.714Z,-5.58
2023-02-09T00:50:54.402Z,-5.81
2023-02-09T00:53:22.115Z,-5.89
2023-02-09T00:55:48.977Z,-5.78
2023-02-09T00:58:16.035Z,-5.77
2023-02-09T01:00:42.841Z,-5.82
2023-02-09T01:03:09.580Z,-5.78
2023-02-09T01:05:40.505Z,-5.95
2023-02-09T01:08:07.227Z,-6.01
2023-02-09T01:10:34.345Z,-6.04
2023-02-09T01:13:00.800Z,-6.11
2023-02-09T01:15:28.905Z,-5.93
2023-02-09T01:17:55.356Z,-5.87
2023-02-09T01:20:21.896Z,-6.11
2023-02-09T01:22:48.389Z,-5.97
2023-02-09T01:25:14.838Z,-5.94
2023-02-09T01:27:42.296Z,-6.13
2023-02-09T01:30:09.795Z,-6.13
2023-02-09T01:32:36.926Z,-6.29
2023-02-09T01:35:04.149Z,-6.25
2023-02-09T01:37:30.624Z,-6.11
2023-02-09T01:39:57.186Z,-6.16
2023-02-09T01:42:23.648Z,-6.28
2023-02-09T01:44:50.297Z,-6.50
2023-02-09T01:47:18.780Z,-6.70
2023-02-09T01:49:48.977Z,-6.45
2023-02-09T01:52:20.501Z,-6.39
2023-02-09T01:54:52.712Z,-6.21
2023-02-09T02:01:28.917Z,-6.49
2023-02-09T02:03:55.682Z,-6.71
2023-02-09T02:06:22.236Z,-6.81
2023-02-09T02:08:58.002Z,-6.85
2023-02-09T02:11:28.137Z,-6.87
2023-02-09T02:13:54.641Z,-6.66
2023-02-09T02:16:53.579Z,-6.64
2023-02-09T02:19:43.975Z,-6.51
2023-02-09T02:22:25.542Z,-6.85
2023-02-09T02:25:10.646Z,-7.03
2023-02-09T02:28:20.015Z,-6.98
2023-02-09T02:31:18.091Z,-6.93
2023-02-09T02:34:04.780Z,-6.90
2023-02-09T02:36:55.475Z,-6.69
2023-02-09T02:39:33.501Z,-6.87
2023-02-09T02:42:33.463Z,-6.70
2023-02-09T02:45:11.192Z,-6.64
2023-02-09T02:47:42.020Z,-6.61
2023-02-09T02:50:16.778Z,-6.65
2023-02-09T02:52:47.478Z,-6.62
2023-02-09T02:55:16.692Z,-6.75
2023-02-09T02:57:47.228Z,-6.81
2023-02-09T03:00:19.092Z,-6.80
2023-02-09T03:02:53.481Z,-6.81
2023-02-09T03:05:23.883Z,-6.69
2023-02-09T03:07:50.662Z,-6.76
2023-02-09T03:10:43.613Z,-7.03
2023-02-09T03:13:12.972Z,-7.06
2023-02-09T03:15:56.972Z,-7.18
2023-02-09T03:18:39.619Z,-6.99
2023-02-09T03:21:18.888Z,-6.88
2023-02-09T03:23:53.684Z,-6.83
2023-02-09T03:26:25.186Z,-6.86
2023-02-09T03:28:56.976Z,-7.32
2023-02-09T03:31:24.814Z,-7.40
2023-02-09T03:33:51.847Z,-7.27
2023-02-09T03:36:20.361Z,-7.13
2023-02-09T03:38:46.767Z,-7.22
2023-02-09T03:41:13.245Z,-7.26
2023-02-09T03:43:58.297Z,-7.12
2023-02-09T03:46:24.777Z,-7.13
2023-02-09T03:48:51.359Z,-7.18
2023-02-09T03:51:17.796Z,-7.24
2023-02-09T03:53:44.216Z,-7.19
2023-02-09T03:56:10.633Z,-7.12
2023-02-09T03:58:37.143Z,-7.05
2023-02-09T04:01:09.268Z,-7.08
2023-02-09T04:03:36.424Z,-7.11
2023-02-09T04:06:03.668Z,-7.07
2023-02-09T04:08:30.178Z,-7.08
2023-02-09T04:10:57.551Z,-7.33
2023-02-09T04:13:25.020Z,-7.26
2023-02-09T04:15:52.000Z,-7.56
2023-02-09T04:18:18.641Z,-7.77
2023-02-09T04:20:45.861Z,-7.61
2023-02-09T04:23:12.940Z,-7.85
2023-02-09T04:25:39.623Z,-7.83
2023-02-09T04:28:06.119Z,-7.95
2023-02-09T04:30:32.685Z,-7.93
2023-02-09T04:32:59.361Z,-7.83
2023-02-09T04:35:25.979Z,-8.02
2023-02-09T04:37:52.449Z,-8.05
2023-02-09T04:40:19.294Z,-7.94
2023-02-09T04:42:46.814Z,-7.87
2023-02-09T04:45:13.382Z,-7.83
2023-02-09T04:47:39.865Z,-7.89
2023-02-09T04:50:06.512Z,-8.05
2023-02-09T04:52:33.012Z,-8.04
2023-02-09T04:54:59.469Z,-8.12
2023-02-09T04:57:44.535Z,-8.01
2023-02-09T05:00:11.655Z,-8.21
2023-02-09T05:02:38.101Z,-8.29
2023-02-09T05:05:04.782Z,-8.18
2023-02-09T05:07:31.237Z,-8.08
2023-02-09T05:09:57.669Z,-7.78
2023-02-09T05:12:24.160Z,-7.80
2023-02-09T05:14:50.680Z,-8.06
2023-02-09T05:17:20.987Z,-8.21
2023-02-09T05:19:48.643Z,-8.46
2023-02-09T05:22:15.204Z,-8.22
2023-02-09T05:24:41.650Z,-7.87
2023-02-09T05:27:08.166Z,-8.02
2023-02-09T05:29:34.671Z,-8.16
2023-02-09T05:32:01.221Z,-7.97
2023-02-09T05:34:27.671Z,-7.78
2023-02-09T05:36:54.177Z,-7.87
2023-02-09T05:39:20.640Z,-8.02
2023-02-09T05:42:05.732Z,-7.95
2023-02-09T05:44:32.240Z,-7.85
2023-02-09T05:46:58.772Z,-7.98
2023-02-09T05:49:25.312Z,-7.90
2023-02-09T05:51:51.876Z,-7.93
2023-02-09T05:54:18.354Z,-7.84
2023-02-09T05:56:44.831Z,-7.93
2023-02-09T05:59:11.282Z,-7.98
2023-02-09T06:01:37.911Z,-8.13
2023-02-09T06:04:04.541Z,-8.37
2023-02-09T06:06:31.298Z,-8.36
2023-02-09T06:08:57.787Z,-8.35
2023-02-09T06:11:24.239Z,-8.37
2023-02-09T06:13:50.706Z,-8.16
2023-02-09T06:16:17.184Z,-8.25
2023-02-09T06:18:43.608Z,-8.48
2023-02-09T06:21:12.029Z,-8.25
2023-02-09T06:23:39.370Z,-7.98
2023-02-09T06:26:11.559Z,-7.96
2023-02-09T06:28:38.426Z,-8.01
2023-02-09T06:31:06.844Z,-8.34
2023-02-09T06:33:35.451Z,-8.67
2023-02-09T06:36:02.493Z,-8.91
2023-02-09T06:38:36.622Z,-8.90
2023-02-09T06:41:04.246Z,-8.72
2023-02-09T06:43:30.745Z,-8.41
2023-02-09T06:45:57.331Z,-8.24
2023-02-09T06:48:23.826Z,-8.06
2023-02-09T06:50:50.263Z,-7.98
2023-02-09T06:53:18.645Z,-7.85
2023-02-09T06:55:45.212Z,-7.87
2023-02-09T06:58:11.682Z,-7.85
2023-02-09T07:00:38.180Z,-7.76
2023-02-09T07:03:04.728Z,-7.89
2023-02-09T07:05:31.637Z,-7.74
2023-02-09T07:07:58.256Z,-7.67
2023-02-09T07:10:24.848Z,-7.84
2023-02-09T07:12:51.519Z,-8.13
2023-02-09T07:15:18.112Z,-8.26
2023-02-09T07:17:44.887Z,-7.83
2023-02-09T07:20:11.786Z,-8.02
2023-02-09T07:22:38.383Z,-8.15
2023-02-09T07:25:05.389Z,-7.75
2023-02-09T07:27:31.947Z,-7.98
2023-02-09T07:30:00.752Z,-8.11
2023-02-09T07:32:27.799Z,-7.97
2023-02-09T07:34:54.347Z,-7.69
2023-02-09T07:37:20.795Z,-7.45
2023-02-09T07:39:47.424Z,-7.40
2023-02-09T07:42:13.969Z,-7.57
2023-02-09T07:44:48.793Z,-7.50
2023-02-09T07:47:15.243Z,-7.25
2023-02-09T07:49:41.738Z,-7.07
2023-02-09T07:52:08.187Z,-7.10
2023-02-09T07:54:34.652Z,-7.35
2023-02-09T07:57:01.132Z,-7.24
2023-02-09T07:59:27.780Z,-7.42
2023-02-09T08:01:54.240Z,-7.34
2023-02-09T08:04:20.922Z,-7.09
2023-02-09T08:06:47.409Z,-7.05
2023-02-09T08:09:18.091Z,-6.62
2023-02-09T08:11:58.750Z,-6.27
2023-02-09T08:14:31.829Z,-6.05
2023-02-09T08:17:23.591Z,-5.99
2023-02-09T08:20:02.269Z,-5.81
2023-02-09T08:22:33.557Z,-5.73
2023-02-09T08:25:02.837Z,-5.47
2023-02-09T08:27:30.220Z,-5.31
2023-02-09T08:29:58.413Z,-5.17
2023-02-09T08:32:24.869Z,-5.13
2023-02-09T08:34:51.360Z,-4.79
2023-02-09T08:37:17.871Z,-4.65
2023-02-09T08:39:45.198Z,-4.14
2023-02-09T08:42:11.692Z,-3.64
2023-02-09T08:44:38.148Z,-3.47
2023-02-09T08:47:04.840Z,-3.32
2023-02-09T08:49:31.347Z,-3.90
2023-02-09T08:51:57.794Z,-3.21
2023-02-09T08:54:25.326Z,-2.37
2023-02-09T08:56:51.758Z,-2.32
2023-02-09T08:59:20.062Z,-1.77
2023-02-09T09:01:46.694Z,-1.55
2023-02-09T09:04:13.534Z,-2.39
2023-02-09T09:06:40.055Z,-3.00
2023-02-09T09:09:06.645Z,-3.19
2023-02-09T09:11:33.208Z,-3.22
2023-02-09T09:13:59.674Z,-3.34
2023-02-09T09:16:26.171Z,-3.18
2023-02-09T09:18:52.654Z,-3.14
2023-02-09T09:21:19.418Z,-2.87
2023-02-09T09:23:46.913Z,-2.83
2023-02-09T09:26:13.806Z,-3.34
2023-02-09T09:28:40.288Z,-3.44
2023-02-09T09:31:12.918Z,-3.17
2023-02-09T09:33:40.217Z,-3.01
2023-02-09T09:36:07.568Z,-2.96
2023-02-09T09:38:35.930Z,-2.73
2023-02-09T09:41:04.792Z,-2.60
2023-02-09T09:43:39.384Z,-2.45
2023-02-09T09:46:12.054Z,-1.60
2023-02-09T09:48:45.697Z,0.29
2023-02-09T09:51:18.604Z,1.91
2023-02-09T09:53:49.421Z,2.75
2023-02-09T09:56:20.042Z,2.89
2023-02-09T09:58:47.382Z,2.27
2023-02-09T10:01:16.023Z,2.59
2023-02-09T10:03:42.820Z,2.88
2023-02-09T10:06:22.889Z,4.17
2023-02-09T10:08:55.093Z,3.79
2023-02-09T10:11:33.118Z,4.58
2023-02-09T10:13:59.603Z,4.25
2023-02-09T10:16:34.427Z,4.36
2023-02-09T10:19:05.816Z,4.09
2023-02-09T10:21:36.738Z,4.48
2023-02-09T10:24:12.739Z,4.74
2023-02-09T10:26:40.744Z,6.14
2023-02-09T10:29:13.376Z,5.63
2023-02-09T10:31:41.406Z,6.63
2023-02-09T10:34:17.088Z,6.97
2023-02-09T10:36:54.308Z,7.08
2023-02-09T10:39:39.350Z,6.90
2023-02-09T10:42:19.220Z,6.82
2023-02-09T10:44:50.360Z,5.86
2023-02-09T10:47:19.815Z,6.01
2023-02-09T10:50:07.711Z,7.34
2023-02-09T10:52:37.152Z,7.75
2023-02-09T10:55:17.409Z,8.41
2023-02-09T10:57:43.896Z,8.53
2023-02-09T11:00:16.202Z,8.61
2023-02-09T11:02:52.236Z,8.41
2023-02-09T11:05:21.716Z,8.43
2023-02-09T11:07:58.055Z,8.30
2023-02-09T11:10:27.114Z,7.82
2023-02-09T11:12:53.571Z,8.34
2023-02-09T11:15:26.687Z,8.26
2023-02-09T11:18:01.184Z,7.99
2023-02-09T11:20:35.486Z,8.25
2023-02-09T11:23:47.048Z,8.43
2023-02-09T11:26:32.297Z,7.91
2023-02-09T11:29:10.503Z,7.45
2023-02-09T11:32:01.841Z,7.77
2023-02-09T11:34:38.088Z,8.39
2023-02-09T11:37:20.883Z,7.62
2023-02-09T11:39:52.634Z,6.51
2023-02-09T11:42:45.650Z,7.22
2023-02-09T11:45:12.094Z,8.84
2023-02-09T11:47:58.334Z,8.73
2023-02-09T11:50:44.320Z,8.93
2023-02-09T11:53:23.484Z,8.48
2023-02-09T11:55:57.507Z,9.51
2023-02-09T11:58:51.779Z,8.80
2023-02-09T12:01:29.730Z,9.34
2023-02-09T12:04:03.980Z,8.30
2023-02-09T12:06:37.536Z,7.91
2023-02-09T12:09:37.735Z,8.32
2023-02-09T12:12:15.326Z,8.29
2023-02-09T12:14:49.590Z,7.53
2023-02-09T12:17:29.652Z,7.24
2023-02-09T12:19:59.122Z,8.42
2023-02-09T12:22:34.863Z,8.14
2023-02-09T12:25:10.458Z,8.06
2023-02-09T12:27:38.947Z,7.74
2023-02-09T12:30:42.393Z,7.15
2023-02-09T12:33:23.914Z,6.60
2023-02-09T12:36:09.049Z,6.87
2023-02-09T12:38:56.333Z,6.94
2023-02-09T12:41:28.507Z,6.70
2023-02-09T12:44:10.267Z,7.08
2023-02-09T12:46:51.733Z,6.62
2023-02-09T12:49:31.991Z,7.01
2023-02-09T12:52:01.417Z,6.75
2023-02-09T12:54:41.461Z,7.92
2023-02-09T12:57:17.387Z,7.59
2023-02-09T12:59:50.077Z,7.40
2023-02-09T13:02:38.053Z,7.02
2023-02-09T13:05:19.716Z,6.29
2023-02-09T13:07:53.218Z,6.53
2023-02-09T13:10:48.262Z,5.83
2023-02-09T13:13:19.616Z,5.83
2023-02-09T13:16:07.008Z,5.79
2023-02-09T13:19:00.535Z,5.47
2023-02-09T13:22:04.679Z,5.77
2023-02-09T13:24:41.500Z,5.65
2023-02-09T13:27:22.809Z,6.24
2023-02-09T13:29:57.395Z,6.39
2023-02-09T13:32:38.162Z,6.46
2023-02-09T13:35:21.480Z,6.84
2023-02-09T13:37:54.119Z,6.90
2023-02-09T13:40:26.705Z,7.25
2023-02-09T13:42:58.964Z,6.70
2023-02-09T13:45:26.835Z,5.64
2023-02-09T13:47:55.470Z,4.94
2023-02-09T13:50:24.349Z,4.47
2023-02-09T13:52:51.126Z,4.09
2023-02-09T13:55:25.340Z,3.89
2023-02-09T13:58:04.413Z,3.90
2023-02-09T14:00:40.390Z,3.62
2023-02-09T14:03:46.960Z,3.47
2023-02-09T14:06:39.883Z,2.93
2023-02-09T14:09:15.578Z,2.82
2023-02-09T14:11:51.898Z,3.09
2023-02-09T14:14:25.998Z,3.04
2023-02-09T14:17:24.497Z,3.11
2023-02-09T14:19:52.824Z,2.98
2023-02-09T14:22:39.848Z,2.76
2023-02-09T14:25:22.469Z,2.83
2023-02-09T14:27:49.529Z,2.76
2023-02-09T14:30:23.353Z,2.72
2023-02-09T14:32:56.006Z,2.82
2023-02-09T14:35:28.792Z,2.84
2023-02-09T14:37:58.477Z,2.77
2023-02-09T14:40:28.110Z,2.58
2023-02-09T14:43:12.540Z,2.56
2023-02-09T14:45:48.515Z,2.70
2023-02-09T14:48:27.368Z,2.78
2023-02-09T14:50:56.485Z,2.50
2023-02-09T14:53:26.151Z,2.23
2023-02-09T14:55:56.503Z,2.27
2023-02-09T14:58:26.301Z,2.12
2023-02-09T15:00:55.223Z,2.13
2023-02-09T15:03:22.252Z,2.05
2023-02-09T15:05:51.187Z,1.95
2023-02-09T15:08:21.143Z,1.82
2023-02-09T15:11:28.422Z,1.76
2023-02-09T15:14:03.635Z,1.74
2023-02-09T15:16:31.100Z,1.68
2023-02-09T15:18:57.657Z,1.88
2023-02-09T15:21:24.359Z,1.92
2023-02-09T15:23:50.805Z,1.87
2023-02-09T15:26:18.657Z,1.97
2023-02-09T15:28:45.094Z,1.96
2023-02-09T15:31:15.954Z,1.77
2023-02-09T15:33:43.095Z,1.69
2023-02-09T15:36:19.020Z,1.79
2023-02-09T15:38:45.502Z,1.72
2023-02-09T15:41:30.744Z,1.55
2023-02-09T15:44:15.913Z,1.31
2023-02-09T15:47:01.893Z,1.65
2023-02-09T15:49:30.903Z,1.39
2023-02-09T15:51:57.363Z,1.08
2023-02-09T15:54:29.570Z,0.91
2023-02-09T15:56:56.001Z,0.70
2023-02-09T15:59:23.630Z,0.60
2023-02-09T16:01:50.791Z,0.48
2023-02-09T16:04:18.174Z,0.26
2023-02-09T16:06:53.130Z,0.54
2023-02-09T16:09:23.515Z,0.47
2023-02-09T16:11:50.075Z,0.21
2023-02-09T16:14:20.298Z,0.26
2023-02-09T16:16:47.449Z,0.13
2023-02-09T16:19:14.612Z,-0.05
2023-02-09T16:21:44.372Z,0.02
2023-02-09T16:24:30.263Z,-0.03
2023-02-09T16:26:59.830Z,-0.01
2023-02-09T16:29:26.410Z,0.02
2023-02-09T16:31:53.083Z,-0.20
2023-02-09T16:34:19.620Z,-0.24
2023-02-09T16:36:48.438Z,-0.36
2023-02-09T16:39:20.431Z,-0.85
2023-02-09T16:41:48.074Z,-0.88
2023-02-09T16:44:26.993Z,-1.16
2023-02-09T16:46:56.636Z,-1.54
2023-02-09T16:49:37.449Z,-1.42
2023-02-09T16:52:12.513Z,-1.51
2023-02-09T16:54:54.677Z,-1.45
2023-02-09T16:57:25.831Z,-1.47
2023-02-09T16:59:53.416Z,-1.48
2023-02-09T17:02:29.155Z,-1.68
2023-02-09T17:04:55.759Z,-1.81
2023-02-09T17:07:28.141Z,-1.85
2023-02-09T17:09:57.403Z,-1.60
2023-02-09T17:12:23.934Z,-1.54
2023-02-09T17:14:50.446Z,-1.95
2023-02-09T17:17:20.097Z,-1.83
2023-02-09T17:19:49.491Z,-1.88
2023-02-09T17:22:16.362Z,-1.94
2023-02-09T17:24:42.944Z,-1.97
2023-02-09T17:27:10.141Z,-1.96
2023-02-09T17:29:36.589Z,-2.00
2023-02-09T17:32:03.516Z,-2.03
2023-02-09T17:34:30.193Z,-2.03
2023-02-09T17:36:57.993Z,-2.13
2023-02-09T17:39:24.967Z,-2.17
2023-02-09T17:41:51.700Z,-2.20
2023-02-09T17:44:43.687Z,-2.30
2023-02-09T17:47:20.039Z,-2.29
2023-02-09T17:49:46.986Z,-2.27
2023-02-09T17:52:20.157Z,-2.25
2023-02-09T17:54:47.567Z,-2.20
2023-02-09T17:57:16.215Z,-2.26
2023-02-09T17:59:43.236Z,-2.46
2023-02-09T18:02:19.603Z,-2.72
2023-02-09T18:04:46.242Z,-2.69
2023-02-09T18:07:14.468Z,-2.85
2023-02-09T18:09:40.942Z,-2.92
2023-02-09T18:12:16.723Z,-2.86
2023-02-09T18:14:43.154Z,-2.90
2023-02-09T18:17:09.689Z,-2.90
2023-02-09T18:19:36.235Z,-2.79
2023-02-09T18:22:02.908Z,-2.72
2023-02-09T18:24:34.863Z,-2.60
2023-02-09T18:27:01.970Z,-2.75
2023-02-09T18:29:31.330Z,-3.10
2023-02-09T18:32:00.105Z,-3.00
2023-02-09T18:34:27.640Z,-2.91
2023-02-09T18:36:54.156Z,-3.13
2023-02-09T18:39:20.665Z,-3.16
2023-02-09T18:41:53.830Z,-3.22
2023-02-09T18:44:24.248Z,-3.15
2023-02-09T18:46:50.719Z,-3.07
2023-02-09T18:49:17.156Z,-3.02
2023-02-09T18:51:43.626Z,-3.02
2023-02-09T18:54:10.095Z,-2.91
2023-02-09T18:56:36.561Z,-2.94
2023-02-09T18:59:03.036Z,-2.99
2023-02-09T19:01:29.509Z,-2.95
2023-02-09T19:03:56.016Z,-2.85
2023-02-09T19:06:25.181Z,-2.80
2023-02-09T19:08:52.291Z,-2.93
2023-02-09T19:11:21.325Z,-3.08
2023-02-09T19:14:07.134Z,-3.28
2023-02-09T19:16:35.386Z,-3.41
2023-02-09T19:19:01.906Z,-3.30
2023-02-09T19:21:28.890Z,-3.47
2023-02-09T19:23:55.510Z,-3.67
2023-02-09T19:26:22.058Z,-3.64
2023-02-09T19:28:48.657Z,-3.40
2023-02-09T19:31:16.941Z,-3.23
2023-02-09T19:33:43.652Z,-3.15
2023-02-09T19:36:10.249Z,-3.04
2023-02-09T19:38:36.716Z,-3.07
2023-02-09T19:41:10.655Z,-3.05
2023-02-09T19:43:39.304Z,-3.02
2023-02-09T19:46:06.345Z,-3.11
2023-02-09T19:48:33.060Z,-3.20
2023-02-09T19:50:59.919Z,-3.14
2023-02-09T19:53:27.203Z,-3.14
2023-02-09T19:55:54.408Z,-3.10
2023-02-09T19:58:24.031Z,-3.27
2023-02-09T20:00:51.883Z,-3.24
2023-02-09T20:03:18.774Z,-3.18
2023-02-09T20:05:45.935Z,-3.11
2023-02-09T20:08:15.715Z,-3.24
2023-02-09T20:10:43.998Z,-3.21
2023-02-09T20:13:12.826Z,-3.14
2023-02-09T20:15:43.863Z,-3.16
2023-02-09T20:18:12.725Z,-3.63
2023-02-09T20:20:41.956Z,-3.69
2023-02-09T20:23:09.491Z,-3.86
2023-02-09T20:25:35.966Z,-3.78
2023-02-09T20:28:02.760Z,-3.68
2023-02-09T20:30:29.259Z,-3.82
2023-02-09T20:32:55.741Z,-3.74
2023-02-09T20:35:22.400Z,-3.65
2023-02-09T20:37:49.327Z,-3.71
2023-02-09T20:40:15.938Z,-3.69
2023-02-09T20:43:00.854Z,-3.78
2023-02-09T20:45:46.018Z,-3.72
2023-02-09T20:48:13.673Z,-3.72
2023-02-09T20:50:40.192Z,-3.70
2023-02-09T20:53:06.684Z,-3.85
2023-02-09T20:55:33.186Z,-4.10
2023-02-09T20:57:59.671Z,-4.29
2023-02-09T21:00:26.203Z,-4.17
2023-02-09T21:02:52.683Z,-4.19
2023-02-09T21:05:19.180Z,-4.34
2023-02-09T21:07:45.643Z,-4.31
2023-02-09T21:10:12.976Z,-4.35
2023-02-09T21:12:39.534Z,-4.51
2023-02-09T21:15:06.437Z,-4.59
2023-02-09T21:17:32.980Z,-4.70
2023-02-09T21:19:59.438Z,-4.65
2023-02-09T21:22:25.884Z,-4.70
2023-02-09T21:24:52.332Z,-4.66
2023-02-09T21:27:19.264Z,-4.80
2023-02-09T21:29:45.822Z,-4.81
2023-02-09T21:32:12.285Z,-4.85
2023-02-09T21:34:38.764Z,-4.93
2023-02-09T21:37:07.908Z,-4.81
2023-02-09T21:39:34.501Z,-4.82
2023-02-09T21:42:19.467Z,-4.55
2023-02-09T21:44:46.997Z,-4.67
2023-02-09T21:47:13.545Z,-4.92
2023-02-09T21:49:40.067Z,-4.95
2023-02-09T21:52:06.560Z,-4.99
2023-02-09T21:54:33.873Z,-5.06
2023-02-09T21:57:01.654Z,-4.97
2023-02-09T21:59:28.805Z,-5.08
2023-02-09T22:01:55.539Z,-4.89
2023-02-09T22:04:22.097Z,-4.96
2023-02-09T22:06:49.172Z,-4.94
2023-02-09T22:09:15.969Z,-4.78
2023-02-09T22:11:42.401Z,-4.79
2023-02-09T22:14:09.178Z,-4.82
2023-02-09T22:16:35.682Z,-4.78
2023-02-09T22:19:02.188Z,-4.75
2023-02-09T22:21:28.658Z,-4.80
2023-02-09T22:23:55.311Z,-5.16
2023-02-09T22:26:21.827Z,-5.24
2023-02-09T22:28:48.672Z,-5.00
2023-02-09T22:31:17.571Z,-4.91
2023-02-09T22:33:44.530Z,-4.83
2023-02-09T22:36:13.671Z,-4.78
2023-02-09T22:38:40.578Z,-4.88
2023-02-09T22:41:21.201Z,-5.03
2023-02-09T22:43:59.553Z,-4.96
2023-02-09T22:46:28.848Z,-4.95
2023-02-09T22:48:58.489Z,-5.31
2023-02-09T22:51:30.785Z,-5.30
2023-02-09T22:53:58.881Z,-5.09
2023-02-09T22:56:26.278Z,-5.00
2023-02-09T22:58:53.987Z,-5.05
2023-02-09T23:01:21.017Z,-5.05
2023-02-09T23:03:47.795Z,-5.18
2023-02-09T23:06:17.362Z,-5.11
2023-02-09T23:08:44.292Z,-5.18
2023-02-09T23:11:14.682Z,-5.60
2023-02-09T23:13:41.844Z,-5.59
2023-02-09T23:16:20.590Z,-5.69
2023-02-09T23:18:55.877Z,-5.57
2023-02-09T23:21:25.115Z,-5.55
2023-02-09T23:23:52.192Z,-5.52
2023-02-09T23:26:19.797Z,-5.52
2023-02-09T23:28:47.936Z,-5.40
2023-02-09T23:31:16.776Z,-5.37
2023-02-09T23:33:43.503Z,-5.57
2023-02-09T23:36:31.655Z,-5.54
2023-02-09T23:39:00.958Z,-5.79
2023-02-09T23:41:27.935Z,-5.53
2023-02-09T23:43:55.214Z,-5.30
2023-02-09T23:46:26.740Z,-5.27
2023-02-09T23:48:55.075Z,-5.42
2023-02-09T23:51:28.435Z,-5.50
2023-02-09T23:53:57.766Z,-5.57
2023-02-09T23:56:24.967Z,-5.66
2023-02-09T23:58:53.095Z,-5.79
